sensor_id;sensor_type;location;lat;lon;timestamp;P1;durP1;ratioP1;P2;durP2;ratioP2
40471;SDS011;26174;42.908;23.800;2022-11-11T00:00:33;65.65;;;28.55;;
40471;SDS011;26174;42.908;23.800;2022-11-11T00:02:59;62.83;;;27.02;;
40471;SDS011;26174;42.908;23.800;2022-11-11T00:05:25;55.60;;;25.67;;
40471;SDS011;26174;42.908;23.800;2022-11-11T00:07:51;49.58;;;23.23;;
40471;SDS011;26174;42.908;23.800;2022-11-11T00:10:17;53.90;;;23.40;;
40471;SDS011;26174;42.908;23.800;2022-11-11T00:12:42;50.33;;;22.73;;
40471;SDS011;26174;42.908;23.800;2022-11-11T00:15:08;44.58;;;22.42;;
40471;SDS011;26174;42.908;23.800;2022-11-11T00:17:33;50.28;;;21.75;;
40471;SDS011;26174;42.908;23.800;2022-11-11T00:20:17;46.50;;;22.05;;
40471;SDS011;26174;42.908;23.800;2022-11-11T00:23:01;47.20;;;21.65;;
40471;SDS011;26174;42.908;23.800;2022-11-11T00:25:49;50.92;;;22.77;;
40471;SDS011;26174;42.908;23.800;2022-11-11T00:28:16;47.78;;;22.20;;
40471;SDS011;26174;42.908;23.800;2022-11-11T00:30:42;53.47;;;23.00;;
40471;SDS011;26174;42.908;23.800;2022-11-11T00:33:07;53.63;;;23.50;;
40471;SDS011;26174;42.908;23.800;2022-11-11T00:35:33;50.63;;;22.58;;
40471;SDS011;26174;42.908;23.800;2022-11-11T00:38:16;49.65;;;23.65;;
40471;SDS011;26174;42.908;23.800;2022-11-11T00:41:00;50.42;;;23.33;;
40471;SDS011;26174;42.908;23.800;2022-11-11T00:43:26;50.17;;;23.25;;
40471;SDS011;26174;42.908;23.800;2022-11-11T00:45:52;51.35;;;23.50;;
40471;SDS011;26174;42.908;23.800;2022-11-11T00:48:17;56.20;;;23.63;;
40471;SDS011;26174;42.908;23.800;2022-11-11T00:51:01;65.15;;;24.63;;
40471;SDS011;26174;42.908;23.800;2022-11-11T00:53:28;51.05;;;24.27;;
40471;SDS011;26174;42.908;23.800;2022-11-11T00:55:55;56.30;;;25.33;;
40471;SDS011;26174;42.908;23.800;2022-11-11T00:58:21;57.65;;;25.38;;
40471;SDS011;26174;42.908;23.800;2022-11-11T01:00:47;68.63;;;27.85;;
40471;SDS011;26174;42.908;23.800;2022-11-11T01:03:18;70.18;;;29.55;;
40471;SDS011;26174;42.908;23.800;2022-11-11T01:05:44;66.80;;;29.05;;
40471;SDS011;26174;42.908;23.800;2022-11-11T01:08:09;56.85;;;26.52;;
40471;SDS011;26174;42.908;23.800;2022-11-11T01:10:35;64.68;;;27.42;;
40471;SDS011;26174;42.908;23.800;2022-11-11T01:13:28;63.40;;;29.00;;
40471;SDS011;26174;42.908;23.800;2022-11-11T01:16:02;58.30;;;27.08;;
40471;SDS011;26174;42.908;23.800;2022-11-11T01:18:29;57.92;;;26.95;;
40471;SDS011;26174;42.908;23.800;2022-11-11T01:23:31;51.47;;;26.00;;
40471;SDS011;26174;42.908;23.800;2022-11-11T01:26:06;48.92;;;24.23;;
40471;SDS011;26174;42.908;23.800;2022-11-11T01:28:31;53.05;;;24.83;;
40471;SDS011;26174;42.908;23.800;2022-11-11T01:31:01;48.67;;;23.20;;
40471;SDS011;26174;42.908;23.800;2022-11-11T01:33:28;54.40;;;25.02;;
40471;SDS011;26174;42.908;23.800;2022-11-11T01:35:53;51.75;;;24.95;;
40471;SDS011;26174;42.908;23.800;2022-11-11T01:38:20;51.47;;;25.77;;
40471;SDS011;26174;42.908;23.800;2022-11-11T01:40:46;56.42;;;25.27;;
40471;SDS011;26174;42.908;23.800;2022-11-11T01:43:17;54.80;;;25.30;;
40471;SDS011;26174;42.908;23.800;2022-11-11T01:48:13;53.30;;;23.75;;
40471;SDS011;26174;42.908;23.800;2022-11-11T01:51:02;53.00;;;22.98;;
40471;SDS011;26174;42.908;23.800;2022-11-11T01:53:29;58.25;;;23.65;;
40471;SDS011;26174;42.908;23.800;2022-11-11T01:55:55;45.65;;;22.15;;
40471;SDS011;26174;42.908;23.800;2022-11-11T01:58:21;45.80;;;22.85;;
40471;SDS011;26174;42.908;23.800;2022-11-11T02:00:49;50.78;;;23.25;;
40471;SDS011;26174;42.908;23.800;2022-11-11T02:03:15;51.25;;;22.92;;
40471;SDS011;26174;42.908;23.800;2022-11-11T02:05:42;51.30;;;23.23;;
40471;SDS011;26174;42.908;23.800;2022-11-11T02:08:13;47.60;;;22.00;;
40471;SDS011;26174;42.908;23.800;2022-11-11T02:10:58;44.63;;;21.95;;
40471;SDS011;26174;42.908;23.800;2022-11-11T02:13:24;45.42;;;21.05;;
40471;SDS011;26174;42.908;23.800;2022-11-11T02:16:08;46.70;;;22.67;;
40471;SDS011;26174;42.908;23.800;2022-11-11T02:18:34;48.42;;;23.40;;
40471;SDS011;26174;42.908;23.800;2022-11-11T02:20:59;50.88;;;21.50;;
40471;SDS011;26174;42.908;23.800;2022-11-11T02:26:04;43.33;;;20.95;;
40471;SDS011;26174;42.908;23.800;2022-11-11T02:28:30;50.05;;;22.02;;
40471;SDS011;26174;42.908;23.800;2022-11-11T02:30:56;53.28;;;23.63;;
40471;SDS011;26174;42.908;23.800;2022-11-11T02:33:22;64.38;;;27.08;;
40471;SDS011;26174;42.908;23.800;2022-11-11T02:35:48;52.92;;;25.90;;
40471;SDS011;26174;42.908;23.800;2022-11-11T02:38:22;48.83;;;24.63;;
40471;SDS011;26174;42.908;23.800;2022-11-11T02:40:49;45.05;;;23.90;;
40471;SDS011;26174;42.908;23.800;2022-11-11T02:43:33;44.90;;;23.27;;
40471;SDS011;26174;42.908;23.800;2022-11-11T02:45:59;41.72;;;22.48;;
40471;SDS011;26174;42.908;23.800;2022-11-11T02:48:26;45.28;;;22.65;;
40471;SDS011;26174;42.908;23.800;2022-11-11T02:50:52;40.28;;;21.17;;
40471;SDS011;26174;42.908;23.800;2022-11-11T02:53:18;43.95;;;21.45;;
40471;SDS011;26174;42.908;23.800;2022-11-11T02:55:43;40.05;;;20.23;;
40471;SDS011;26174;42.908;23.800;2022-11-11T03:01:01;40.38;;;20.50;;
40471;SDS011;26174;42.908;23.800;2022-11-11T03:03:27;37.53;;;20.90;;
40471;SDS011;26174;42.908;23.800;2022-11-11T03:08:35;39.28;;;21.08;;
40471;SDS011;26174;42.908;23.800;2022-11-11T03:11:00;44.30;;;21.50;;
40471;SDS011;26174;42.908;23.800;2022-11-11T03:13:26;42.20;;;22.23;;
40471;SDS011;26174;42.908;23.800;2022-11-11T03:15:51;48.85;;;22.15;;
40471;SDS011;26174;42.908;23.800;2022-11-11T03:18:17;46.67;;;23.83;;
40471;SDS011;26174;42.908;23.800;2022-11-11T03:20:44;45.75;;;22.92;;
40471;SDS011;26174;42.908;23.800;2022-11-11T03:23:28;51.70;;;23.83;;
40471;SDS011;26174;42.908;23.800;2022-11-11T03:25:53;46.72;;;22.85;;
40471;SDS011;26174;42.908;23.800;2022-11-11T03:28:21;47.53;;;21.98;;
40471;SDS011;26174;42.908;23.800;2022-11-11T03:30:49;46.50;;;23.23;;
40471;SDS011;26174;42.908;23.800;2022-11-11T03:33:15;69.13;;;26.05;;
40471;SDS011;26174;42.908;23.800;2022-11-11T03:35:42;60.90;;;26.50;;
40471;SDS011;26174;42.908;23.800;2022-11-11T03:38:11;59.22;;;25.38;;
40471;SDS011;26174;42.908;23.800;2022-11-11T03:40:44;54.38;;;27.20;;
40471;SDS011;26174;42.908;23.800;2022-11-11T03:43:14;67.47;;;25.92;;
40471;SDS011;26174;42.908;23.800;2022-11-11T03:45:41;66.20;;;26.65;;
40471;SDS011;26174;42.908;23.800;2022-11-11T03:48:08;57.20;;;26.70;;
40471;SDS011;26174;42.908;23.800;2022-11-11T03:50:33;56.92;;;26.60;;
40471;SDS011;26174;42.908;23.800;2022-11-11T03:52:59;59.80;;;25.92;;
40471;SDS011;26174;42.908;23.800;2022-11-11T03:55:25;69.30;;;28.23;;
40471;SDS011;26174;42.908;23.800;2022-11-11T03:57:51;58.03;;;28.75;;
40471;SDS011;26174;42.908;23.800;2022-11-11T04:00:17;63.00;;;29.05;;
40471;SDS011;26174;42.908;23.800;2022-11-11T04:02:50;52.17;;;27.25;;
40471;SDS011;26174;42.908;23.800;2022-11-11T04:05:35;50.70;;;24.88;;
40471;SDS011;26174;42.908;23.800;2022-11-11T04:08:19;61.55;;;25.75;;
40471;SDS011;26174;42.908;23.800;2022-11-11T04:11:09;54.03;;;25.33;;
40471;SDS011;26174;42.908;23.800;2022-11-11T04:16:21;47.40;;;23.52;;
40471;SDS011;26174;42.908;23.800;2022-11-11T04:18:46;49.65;;;23.13;;
40471;SDS011;26174;42.908;23.800;2022-11-11T04:21:30;47.28;;;24.20;;
40471;SDS011;26174;42.908;23.800;2022-11-11T04:24:15;47.72;;;23.60;;
40471;SDS011;26174;42.908;23.800;2022-11-11T04:27:01;54.00;;;24.38;;
40471;SDS011;26174;42.908;23.800;2022-11-11T04:29:28;52.80;;;25.42;;
40471;SDS011;26174;42.908;23.800;2022-11-11T04:31:58;53.00;;;24.83;;
40471;SDS011;26174;42.908;23.800;2022-11-11T04:34:53;48.17;;;24.85;;
40471;SDS011;26174;42.908;23.800;2022-11-11T04:37:20;54.83;;;25.50;;
40471;SDS011;26174;42.908;23.800;2022-11-11T04:39:46;49.08;;;24.65;;
40471;SDS011;26174;42.908;23.800;2022-11-11T04:42:30;52.03;;;25.63;;
40471;SDS011;26174;42.908;23.800;2022-11-11T04:44:56;50.47;;;24.00;;
40471;SDS011;26174;42.908;23.800;2022-11-11T04:50:28;53.15;;;24.48;;
40471;SDS011;26174;42.908;23.800;2022-11-11T04:52:55;53.03;;;26.85;;
40471;SDS011;26174;42.908;23.800;2022-11-11T04:55:22;65.72;;;27.55;;
40471;SDS011;26174;42.908;23.800;2022-11-11T04:58:09;63.20;;;28.67;;
40471;SDS011;26174;42.908;23.800;2022-11-11T05:00:35;72.18;;;30.15;;
40471;SDS011;26174;42.908;23.800;2022-11-11T05:03:01;69.35;;;30.35;;
40471;SDS011;26174;42.908;23.800;2022-11-11T05:08:38;62.70;;;28.85;;
40471;SDS011;26174;42.908;23.800;2022-11-11T05:11:38;69.13;;;28.25;;
40471;SDS011;26174;42.908;23.800;2022-11-11T05:14:04;64.95;;;29.23;;
40471;SDS011;26174;42.908;23.800;2022-11-11T05:16:57;63.65;;;28.85;;
40471;SDS011;26174;42.908;23.800;2022-11-11T05:19:41;71.72;;;29.23;;
40471;SDS011;26174;42.908;23.800;2022-11-11T05:22:27;71.20;;;29.58;;
40471;SDS011;26174;42.908;23.800;2022-11-11T05:24:54;90.50;;;32.83;;
40471;SDS011;26174;42.908;23.800;2022-11-11T05:27:39;84.90;;;33.78;;
40471;SDS011;26174;42.908;23.800;2022-11-11T05:30:05;114.53;;;39.33;;
40471;SDS011;26174;42.908;23.800;2022-11-11T05:32:32;102.03;;;37.42;;
40471;SDS011;26174;42.908;23.800;2022-11-11T05:34:57;82.93;;;35.50;;
40471;SDS011;26174;42.908;23.800;2022-11-11T05:37:23;95.38;;;33.78;;
40471;SDS011;26174;42.908;23.800;2022-11-11T05:39:48;82.70;;;34.45;;
40471;SDS011;26174;42.908;23.800;2022-11-11T05:42:14;82.25;;;33.95;;
40471;SDS011;26174;42.908;23.800;2022-11-11T05:44:40;72.53;;;31.25;;
40471;SDS011;26174;42.908;23.800;2022-11-11T05:47:05;74.82;;;31.20;;
40471;SDS011;26174;42.908;23.800;2022-11-11T05:49:31;79.53;;;32.15;;
40471;SDS011;26174;42.908;23.800;2022-11-11T05:51:57;74.45;;;29.80;;
40471;SDS011;26174;42.908;23.800;2022-11-11T05:54:23;67.72;;;31.10;;
40471;SDS011;26174;42.908;23.800;2022-11-11T05:56:49;68.50;;;32.28;;
40471;SDS011;26174;42.908;23.800;2022-11-11T05:59:14;76.22;;;33.30;;
40471;SDS011;26174;42.908;23.800;2022-11-11T06:01:40;78.80;;;34.55;;
40471;SDS011;26174;42.908;23.800;2022-11-11T06:04:06;91.53;;;35.05;;
40471;SDS011;26174;42.908;23.800;2022-11-11T06:06:32;85.75;;;33.20;;
40471;SDS011;26174;42.908;23.800;2022-11-11T06:08:58;68.90;;;30.67;;
40471;SDS011;26174;42.908;23.800;2022-11-11T06:11:24;73.15;;;36.00;;
40471;SDS011;26174;42.908;23.800;2022-11-11T06:13:50;92.80;;;36.30;;
40471;SDS011;26174;42.908;23.800;2022-11-11T06:16:15;79.88;;;33.50;;
40471;SDS011;26174;42.908;23.800;2022-11-11T06:18:41;69.45;;;31.48;;
40471;SDS011;26174;42.908;23.800;2022-11-11T06:21:07;65.43;;;30.20;;
40471;SDS011;26174;42.908;23.800;2022-11-11T06:23:32;67.78;;;29.83;;
40471;SDS011;26174;42.908;23.800;2022-11-11T06:25:58;77.72;;;31.23;;
40471;SDS011;26174;42.908;23.800;2022-11-11T06:28:43;91.60;;;35.80;;
40471;SDS011;26174;42.908;23.800;2022-11-11T06:31:14;80.07;;;33.10;;
40471;SDS011;26174;42.908;23.800;2022-11-11T06:33:42;79.22;;;31.92;;
40471;SDS011;26174;42.908;23.800;2022-11-11T06:36:08;76.30;;;31.40;;
40471;SDS011;26174;42.908;23.800;2022-11-11T06:38:35;67.10;;;29.55;;
40471;SDS011;26174;42.908;23.800;2022-11-11T06:41:01;67.05;;;30.23;;
40471;SDS011;26174;42.908;23.800;2022-11-11T06:43:27;67.28;;;28.80;;
40471;SDS011;26174;42.908;23.800;2022-11-11T06:45:53;69.55;;;29.83;;
40471;SDS011;26174;42.908;23.800;2022-11-11T06:48:19;76.40;;;31.27;;
40471;SDS011;26174;42.908;23.800;2022-11-11T06:50:45;75.32;;;32.90;;
40471;SDS011;26174;42.908;23.800;2022-11-11T06:53:12;82.90;;;36.00;;
40471;SDS011;26174;42.908;23.800;2022-11-11T06:55:39;82.93;;;34.10;;
40471;SDS011;26174;42.908;23.800;2022-11-11T07:00:31;93.55;;;42.08;;
40471;SDS011;26174;42.908;23.800;2022-11-11T07:02:57;97.85;;;38.97;;
40471;SDS011;26174;42.908;23.800;2022-11-11T07:05:23;81.45;;;36.67;;
40471;SDS011;26174;42.908;23.800;2022-11-11T07:07:48;88.57;;;39.88;;
40471;SDS011;26174;42.908;23.800;2022-11-11T07:10:14;86.07;;;39.95;;
40471;SDS011;26174;42.908;23.800;2022-11-11T07:12:41;99.05;;;42.45;;
40471;SDS011;26174;42.908;23.800;2022-11-11T07:15:07;85.65;;;40.42;;
40471;SDS011;26174;42.908;23.800;2022-11-11T07:17:34;87.95;;;40.92;;
40471;SDS011;26174;42.908;23.800;2022-11-11T07:19:59;112.22;;;44.35;;
40471;SDS011;26174;42.908;23.800;2022-11-11T07:22:25;111.93;;;46.47;;
40471;SDS011;26174;42.908;23.800;2022-11-11T07:24:50;119.53;;;44.90;;
40471;SDS011;26174;42.908;23.800;2022-11-11T07:27:16;121.40;;;47.65;;
40471;SDS011;26174;42.908;23.800;2022-11-11T07:29:41;100.22;;;42.75;;
40471;SDS011;26174;42.908;23.800;2022-11-11T07:32:07;94.57;;;42.60;;
40471;SDS011;26174;42.908;23.800;2022-11-11T07:34:32;108.75;;;41.13;;
40471;SDS011;26174;42.908;23.800;2022-11-11T07:36:58;108.10;;;47.75;;
40471;SDS011;26174;42.908;23.800;2022-11-11T07:39:23;101.20;;;46.78;;
40471;SDS011;26174;42.908;23.800;2022-11-11T07:41:49;109.65;;;49.10;;
40471;SDS011;26174;42.908;23.800;2022-11-11T07:44:14;110.65;;;47.50;;
40471;SDS011;26174;42.908;23.800;2022-11-11T07:46:40;118.53;;;51.83;;
40471;SDS011;26174;42.908;23.800;2022-11-11T07:49:05;116.13;;;49.85;;
40471;SDS011;26174;42.908;23.800;2022-11-11T07:51:31;109.18;;;50.05;;
40471;SDS011;26174;42.908;23.800;2022-11-11T07:53:56;104.25;;;46.63;;
40471;SDS011;26174;42.908;23.800;2022-11-11T07:56:22;107.30;;;47.92;;
40471;SDS011;26174;42.908;23.800;2022-11-11T07:58:47;102.70;;;47.05;;
40471;SDS011;26174;42.908;23.800;2022-11-11T08:01:13;111.78;;;50.40;;
40471;SDS011;26174;42.908;23.800;2022-11-11T08:03:38;113.10;;;53.38;;
40471;SDS011;26174;42.908;23.800;2022-11-11T08:06:17;117.95;;;54.83;;
40471;SDS011;26174;42.908;23.800;2022-11-11T08:08:43;174.15;;;80.25;;
40471;SDS011;26174;42.908;23.800;2022-11-11T08:11:09;163.15;;;77.88;;
40471;SDS011;26174;42.908;23.800;2022-11-11T08:13:35;126.93;;;59.92;;
40471;SDS011;26174;42.908;23.800;2022-11-11T08:16:10;137.95;;;59.72;;
40471;SDS011;26174;42.908;23.800;2022-11-11T08:18:36;127.32;;;60.45;;
40471;SDS011;26174;42.908;23.800;2022-11-11T08:21:02;148.48;;;63.83;;
40471;SDS011;26174;42.908;23.800;2022-11-11T08:23:28;143.98;;;68.30;;
40471;SDS011;26174;42.908;23.800;2022-11-11T08:25:57;198.82;;;68.07;;
40471;SDS011;26174;42.908;23.800;2022-11-11T08:28:24;163.40;;;73.47;;
40471;SDS011;26174;42.908;23.800;2022-11-11T08:30:49;147.18;;;68.60;;
40471;SDS011;26174;42.908;23.800;2022-11-11T08:33:15;154.82;;;69.18;;
40471;SDS011;26174;42.908;23.800;2022-11-11T08:35:40;136.57;;;61.42;;
40471;SDS011;26174;42.908;23.800;2022-11-11T08:38:06;139.30;;;69.80;;
40471;SDS011;26174;42.908;23.800;2022-11-11T08:40:31;172.95;;;84.82;;
40471;SDS011;26174;42.908;23.800;2022-11-11T08:42:57;139.48;;;71.90;;
40471;SDS011;26174;42.908;23.800;2022-11-11T08:45:23;155.10;;;76.30;;
40471;SDS011;26174;42.908;23.800;2022-11-11T08:47:49;131.75;;;64.57;;
40471;SDS011;26174;42.908;23.800;2022-11-11T08:50:15;114.75;;;57.03;;
40471;SDS011;26174;42.908;23.800;2022-11-11T08:52:47;115.72;;;56.47;;
40471;SDS011;26174;42.908;23.800;2022-11-11T08:55:14;103.22;;;45.10;;
40471;SDS011;26174;42.908;23.800;2022-11-11T08:57:40;160.38;;;46.65;;
40471;SDS011;26174;42.908;23.800;2022-11-11T09:00:06;118.80;;;38.22;;
40471;SDS011;26174;42.908;23.800;2022-11-11T09:02:32;108.60;;;36.42;;
40471;SDS011;26174;42.908;23.800;2022-11-11T09:04:58;132.68;;;37.45;;
40471;SDS011;26174;42.908;23.800;2022-11-11T09:07:23;106.32;;;36.33;;
40471;SDS011;26174;42.908;23.800;2022-11-11T09:09:49;92.80;;;34.90;;
40471;SDS011;26174;42.908;23.800;2022-11-11T09:12:14;94.10;;;35.50;;
40471;SDS011;26174;42.908;23.800;2022-11-11T09:14:40;78.85;;;32.28;;
40471;SDS011;26174;42.908;23.800;2022-11-11T09:17:05;58.60;;;28.25;;
40471;SDS011;26174;42.908;23.800;2022-11-11T09:19:31;54.88;;;26.55;;
40471;SDS011;26174;42.908;23.800;2022-11-11T09:21:57;51.75;;;26.90;;
40471;SDS011;26174;42.908;23.800;2022-11-11T09:24:22;55.97;;;28.20;;
40471;SDS011;26174;42.908;23.800;2022-11-11T09:26:48;48.70;;;26.02;;
40471;SDS011;26174;42.908;23.800;2022-11-11T09:29:14;58.28;;;29.55;;
40471;SDS011;26174;42.908;23.800;2022-11-11T09:31:40;61.67;;;31.42;;
40471;SDS011;26174;42.908;23.800;2022-11-11T09:34:05;56.63;;;30.67;;
40471;SDS011;26174;42.908;23.800;2022-11-11T09:36:31;44.55;;;24.27;;
40471;SDS011;26174;42.908;23.800;2022-11-11T09:38:57;42.08;;;22.98;;
40471;SDS011;26174;42.908;23.800;2022-11-11T09:44:04;38.08;;;21.08;;
40471;SDS011;26174;42.908;23.800;2022-11-11T09:46:37;37.30;;;18.63;;
40471;SDS011;26174;42.908;23.800;2022-11-11T09:52:26;32.83;;;18.10;;
40471;SDS011;26174;42.908;23.800;2022-11-11T10:02:50;17.98;;;9.68;;
40471;SDS011;26174;42.908;23.800;2022-11-11T10:05:23;16.13;;;10.45;;
40471;SDS011;26174;42.908;23.800;2022-11-11T10:08:02;22.70;;;13.43;;
40471;SDS011;26174;42.908;23.800;2022-11-11T10:10:36;23.38;;;12.35;;
40471;SDS011;26174;42.908;23.800;2022-11-11T10:13:09;18.23;;;9.43;;
40471;SDS011;26174;42.908;23.800;2022-11-11T10:18:17;21.75;;;9.07;;
40471;SDS011;26174;42.908;23.800;2022-11-11T10:21:09;19.90;;;8.73;;
40471;SDS011;26174;42.908;23.800;2022-11-11T10:23:39;17.90;;;9.10;;
40471;SDS011;26174;42.908;23.800;2022-11-11T10:26:09;24.90;;;10.35;;
40471;SDS011;26174;42.908;23.800;2022-11-11T10:28:41;25.42;;;9.15;;
40471;SDS011;26174;42.908;23.800;2022-11-11T10:31:14;15.82;;;9.15;;
40471;SDS011;26174;42.908;23.800;2022-11-11T10:33:46;19.17;;;9.73;;
40471;SDS011;26174;42.908;23.800;2022-11-11T10:36:16;19.27;;;10.07;;
40471;SDS011;26174;42.908;23.800;2022-11-11T10:38:50;19.85;;;9.55;;
40471;SDS011;26174;42.908;23.800;2022-11-11T10:43:51;20.75;;;10.13;;
40471;SDS011;26174;42.908;23.800;2022-11-11T10:46:21;20.15;;;9.93;;
40471;SDS011;26174;42.908;23.800;2022-11-11T10:52:05;20.40;;;10.98;;
40471;SDS011;26174;42.908;23.800;2022-11-11T10:55:01;15.95;;;9.13;;
40471;SDS011;26174;42.908;23.800;2022-11-11T10:57:35;18.98;;;9.43;;
40471;SDS011;26174;42.908;23.800;2022-11-11T11:00:07;18.73;;;9.48;;
40471;SDS011;26174;42.908;23.800;2022-11-11T11:05:16;18.30;;;9.68;;
40471;SDS011;26174;42.908;23.800;2022-11-11T11:07:47;17.30;;;8.90;;
40471;SDS011;26174;42.908;23.800;2022-11-11T11:11:18;19.77;;;9.65;;
40471;SDS011;26174;42.908;23.800;2022-11-11T11:16:17;22.75;;;10.10;;
40471;SDS011;26174;42.908;23.800;2022-11-11T11:24:19;42.83;;;12.63;;
40471;SDS011;26174;42.908;23.800;2022-11-11T11:26:49;37.53;;;12.73;;
40471;SDS011;26174;42.908;23.800;2022-11-11T11:29:26;31.08;;;14.27;;
40471;SDS011;26174;42.908;23.800;2022-11-11T11:32:18;24.60;;;13.55;;
40471;SDS011;26174;42.908;23.800;2022-11-11T11:34:49;30.90;;;13.93;;
40471;SDS011;26174;42.908;23.800;2022-11-11T11:37:16;22.08;;;13.02;;
40471;SDS011;26174;42.908;23.800;2022-11-11T11:39:44;40.50;;;13.00;;
40471;SDS011;26174;42.908;23.800;2022-11-11T11:42:52;45.75;;;14.98;;
40471;SDS011;26174;42.908;23.800;2022-11-11T11:48:09;35.28;;;14.57;;
40471;SDS011;26174;42.908;23.800;2022-11-11T11:50:52;30.58;;;14.30;;
40471;SDS011;26174;42.908;23.800;2022-11-11T12:04:20;33.40;;;13.85;;
40471;SDS011;26174;42.908;23.800;2022-11-11T12:09:53;34.88;;;14.40;;
40471;SDS011;26174;42.908;23.800;2022-11-11T12:12:44;28.60;;;14.27;;
40471;SDS011;26174;42.908;23.800;2022-11-11T12:15:20;26.67;;;13.07;;
40471;SDS011;26174;42.908;23.800;2022-11-11T12:20:50;24.25;;;10.75;;
40471;SDS011;26174;42.908;23.800;2022-11-11T12:26:55;18.52;;;10.50;;
40471;SDS011;26174;42.908;23.800;2022-11-11T12:43:11;41.60;;;12.55;;
40471;SDS011;26174;42.908;23.800;2022-11-11T12:50:51;26.83;;;11.65;;
40471;SDS011;26174;42.908;23.800;2022-11-11T12:58:54;25.95;;;9.95;;
40471;SDS011;26174;42.908;23.800;2022-11-11T13:12:42;25.52;;;12.50;;
40471;SDS011;26174;42.908;23.800;2022-11-11T13:18:09;26.95;;;11.38;;
40471;SDS011;26174;42.908;23.800;2022-11-11T13:23:07;23.38;;;12.63;;
40471;SDS011;26174;42.908;23.800;2022-11-11T13:25:34;32.28;;;13.88;;
40471;SDS011;26174;42.908;23.800;2022-11-11T13:28:12;24.65;;;12.70;;
40471;SDS011;26174;42.908;23.800;2022-11-11T13:30:58;25.80;;;12.88;;
40471;SDS011;26174;42.908;23.800;2022-11-11T13:33:40;31.02;;;15.07;;
40471;SDS011;26174;42.908;23.800;2022-11-11T13:36:09;30.13;;;13.48;;
40471;SDS011;26174;42.908;23.800;2022-11-11T13:38:52;30.13;;;12.70;;
40471;SDS011;26174;42.908;23.800;2022-11-11T13:41:29;24.02;;;11.95;;
40471;SDS011;26174;42.908;23.800;2022-11-11T13:43:57;30.42;;;10.43;;
40471;SDS011;26174;42.908;23.800;2022-11-11T13:46:37;26.15;;;10.80;;
40471;SDS011;26174;42.908;23.800;2022-11-11T13:49:06;33.72;;;14.20;;
40471;SDS011;26174;42.908;23.800;2022-11-11T13:53:58;21.27;;;10.00;;
40471;SDS011;26174;42.908;23.800;2022-11-11T13:56:27;21.02;;;10.50;;
40471;SDS011;26174;42.908;23.800;2022-11-11T13:58:55;21.83;;;10.35;;
40471;SDS011;26174;42.908;23.800;2022-11-11T14:01:22;23.85;;;10.15;;
40471;SDS011;26174;42.908;23.800;2022-11-11T14:13:53;27.17;;;14.05;;
40471;SDS011;26174;42.908;23.800;2022-11-11T14:19:26;39.45;;;19.20;;
40471;SDS011;26174;42.908;23.800;2022-11-11T14:21:54;40.40;;;21.52;;
40471;SDS011;26174;42.908;23.800;2022-11-11T14:24:33;31.42;;;14.48;;
40471;SDS011;26174;42.908;23.800;2022-11-11T14:29:46;44.33;;;22.73;;
40471;SDS011;26174;42.908;23.800;2022-11-11T14:38:00;54.55;;;26.05;;
40471;SDS011;26174;42.908;23.800;2022-11-11T14:40:31;58.65;;;28.33;;
40471;SDS011;26174;42.908;23.800;2022-11-11T14:43:01;58.97;;;29.00;;
40471;SDS011;26174;42.908;23.800;2022-11-11T14:46:01;57.88;;;29.95;;
40471;SDS011;26174;42.908;23.800;2022-11-11T14:51:40;61.22;;;30.48;;
40471;SDS011;26174;42.908;23.800;2022-11-11T14:54:16;67.18;;;31.80;;
40471;SDS011;26174;42.908;23.800;2022-11-11T14:56:53;66.95;;;35.17;;
40471;SDS011;26174;42.908;23.800;2022-11-11T14:59:21;72.95;;;34.42;;
40471;SDS011;26174;42.908;23.800;2022-11-11T15:01:48;88.68;;;40.50;;
40471;SDS011;26174;42.908;23.800;2022-11-11T15:04:14;89.63;;;43.60;;
40471;SDS011;26174;42.908;23.800;2022-11-11T15:06:41;62.88;;;28.20;;
40471;SDS011;26174;42.908;23.800;2022-11-11T15:11:50;47.17;;;19.40;;
40471;SDS011;26174;42.908;23.800;2022-11-11T15:19:57;54.28;;;23.08;;
40471;SDS011;26174;42.908;23.800;2022-11-11T15:22:49;58.97;;;24.35;;
40471;SDS011;26174;42.908;23.800;2022-11-11T15:27:54;65.38;;;30.98;;
40471;SDS011;26174;42.908;23.800;2022-11-11T15:30:23;76.35;;;34.60;;
40471;SDS011;26174;42.908;23.800;2022-11-11T15:35:29;73.00;;;34.33;;
40471;SDS011;26174;42.908;23.800;2022-11-11T15:38:00;82.78;;;37.45;;
40471;SDS011;26174;42.908;23.800;2022-11-11T15:40:46;79.40;;;41.58;;
40471;SDS011;26174;42.908;23.800;2022-11-11T15:43:19;70.10;;;35.85;;
40471;SDS011;26174;42.908;23.800;2022-11-11T15:45:49;76.05;;;35.53;;
40471;SDS011;26174;42.908;23.800;2022-11-11T15:48:18;84.43;;;41.35;;
40471;SDS011;26174;42.908;23.800;2022-11-11T15:50:45;100.43;;;50.42;;
40471;SDS011;26174;42.908;23.800;2022-11-11T15:53:12;92.35;;;48.95;;
40471;SDS011;26174;42.908;23.800;2022-11-11T15:55:38;89.63;;;47.20;;
40471;SDS011;26174;42.908;23.800;2022-11-11T15:58:08;108.72;;;48.83;;
40471;SDS011;26174;42.908;23.800;2022-11-11T16:00:35;105.68;;;51.83;;
40471;SDS011;26174;42.908;23.800;2022-11-11T16:03:00;98.85;;;47.33;;
40471;SDS011;26174;42.908;23.800;2022-11-11T16:05:26;94.70;;;45.90;;
40471;SDS011;26174;42.908;23.800;2022-11-11T16:07:55;94.68;;;47.17;;
40471;SDS011;26174;42.908;23.800;2022-11-11T16:13:03;104.53;;;50.47;;
40471;SDS011;26174;42.908;23.800;2022-11-11T16:18:22;62.25;;;27.73;;
40471;SDS011;26174;42.908;23.800;2022-11-11T16:23:19;67.80;;;28.42;;
40471;SDS011;26174;42.908;23.800;2022-11-11T16:25:45;69.82;;;27.25;;
40471;SDS011;26174;42.908;23.800;2022-11-11T16:28:12;87.20;;;35.60;;
40471;SDS011;26174;42.908;23.800;2022-11-11T16:30:38;85.30;;;35.83;;
40471;SDS011;26174;42.908;23.800;2022-11-11T16:33:04;66.97;;;30.92;;
40471;SDS011;26174;42.908;23.800;2022-11-11T16:35:31;65.15;;;29.33;;
40471;SDS011;26174;42.908;23.800;2022-11-11T16:38:00;71.95;;;28.52;;
40471;SDS011;26174;42.908;23.800;2022-11-11T16:45:52;65.68;;;27.50;;
40471;SDS011;26174;42.908;23.800;2022-11-11T16:50:58;102.22;;;43.63;;
40471;SDS011;26174;42.908;23.800;2022-11-11T16:53:27;114.07;;;48.25;;
40471;SDS011;26174;42.908;23.800;2022-11-11T16:55:57;108.90;;;44.90;;
40471;SDS011;26174;42.908;23.800;2022-11-11T16:58:23;151.13;;;59.17;;
40471;SDS011;26174;42.908;23.800;2022-11-11T17:00:49;159.20;;;69.78;;
40471;SDS011;26174;42.908;23.800;2022-11-11T17:03:26;118.80;;;53.60;;
40471;SDS011;26174;42.908;23.800;2022-11-11T17:05:56;139.05;;;62.13;;
40471;SDS011;26174;42.908;23.800;2022-11-11T17:08:33;124.80;;;54.92;;
40471;SDS011;26174;42.908;23.800;2022-11-11T17:11:01;109.65;;;50.47;;
40471;SDS011;26174;42.908;23.800;2022-11-11T17:13:31;87.20;;;38.83;;
40471;SDS011;26174;42.908;23.800;2022-11-11T17:15:59;75.65;;;34.55;;
40471;SDS011;26174;42.908;23.800;2022-11-11T17:18:28;87.28;;;39.72;;
40471;SDS011;26174;42.908;23.800;2022-11-11T17:20:56;97.93;;;42.28;;
40471;SDS011;26174;42.908;23.800;2022-11-11T17:23:22;128.82;;;52.80;;